Time;durP1;ratioP1;P1;durP2;ratioP2;P2;SDS_P1;SDS_P2;PMS_P1;PMS_P2;Temp;Humidity;BMP_temperature;BMP_pressure;BME280_temperature;BME280_humidity;BME280_pressure;Samples;Min_cycle;Max_cycle;Signal;HPM_P1;HPM_P2
2022/01/15 00:01:30;;;;;;;64.05;26.80;;;4.30;99.90;;;;;;5031868;28;20021;-63
2022/01/15 00:03:56;;;;;;;53.55;21.77;;;4.30;99.90;;;;;;5031452;28;20508;-62
2022/01/15 00:06:37;;;;;;;55.88;22.23;;;4.30;99.90;;;;;;5036107;28;20021;-63
2022/01/15 00:09:04;;;;;;;67.97;26.60;;;4.30;99.90;;;;;;5030054;28;20075;-62
2022/01/15 00:11:30;;;;;;;50.22;20.17;;;4.30;99.90;;;;;;5031958;28;20102;-62
2022/01/15 00:14:25;;;;;;;72.80;26.73;;;4.40;99.90;;;;;;5037119;28;20045;-62
2022/01/15 00:16:46;;;;;;;54.33;21.40;;;4.40;99.90;;;;;;5038188;28;20041;-62
2022/01/15 00:19:15;;;;;;;51.38;21.60;;;4.40;99.90;;;;;;5038002;28;20175;-63
2022/01/15 00:21:41;;;;;;;52.67;23.63;;;4.40;99.90;;;;;;5031819;28;20421;-62
2022/01/15 00:24:07;;;;;;;59.10;24.15;;;4.30;99.90;;;;;;5034320;28;20039;-62
2022/01/15 00:26:33;;;;;;;53.58;22.40;;;4.20;99.90;;;;;;5031585;28;20120;-62
2022/01/15 00:29:16;;;;;;;44.10;16.75;;;4.20;99.90;;;;;;5028853;28;20026;-62
2022/01/15 00:31:42;;;;;;;50.90;19.25;;;4.30;99.90;;;;;;5045474;28;20511;-62
2022/01/15 00:34:07;;;;;;;52.03;19.95;;;4.30;99.90;;;;;;5036735;28;20355;-63
2022/01/15 00:36:33;;;;;;;44.88;18.55;;;4.30;99.90;;;;;;5031236;28;20575;-63
2022/01/15 00:38:58;;;;;;;47.70;18.80;;;4.30;99.90;;;;;;5033608;28;20017;-62
2022/01/15 00:41:24;;;;;;;45.67;17.77;;;4.40;99.90;;;;;;5029189;28;20030;-62
2022/01/15 00:43:50;;;;;;;48.63;19.23;;;4.40;99.90;;;;;;5031693;28;20043;-62
2022/01/15 00:46:15;;;;;;;52.88;19.30;;;4.40;99.90;;;;;;5034767;28;20481;-62
2022/01/15 00:48:41;;;;;;;49.92;19.77;;;4.40;99.90;;;;;;5028995;28;20048;-62
2022/01/15 00:51:06;;;;;;;54.67;24.23;;;4.40;99.90;;;;;;5031547;28;20054;-63
2022/01/15 00:53:32;;;;;;;48.83;20.55;;;4.40;99.90;;;;;;5031027;28;20156;-62
2022/01/15 00:55:57;;;;;;;47.55;19.40;;;4.30;99.90;;;;;;5033683;28;20470;-62
2022/01/15 00:58:23;;;;;;;43.92;17.95;;;4.30;99.90;;;;;;5037346;28;20084;-62
2022/01/15 01:00:48;;;;;;;41.88;17.27;;;4.30;99.90;;;;;;5037129;28;20483;-62
2022/01/15 01:03:14;;;;;;;38.50;15.90;;;4.30;99.90;;;;;;5036762;28;20040;-62
2022/01/15 01:05:39;;;;;;;37.03;15.93;;;4.40;99.90;;;;;;5036790;28;20029;-62
2022/01/15 01:08:05;;;;;;;39.45;17.85;;;4.40;99.90;;;;;;5031817;28;20396;-62
2022/01/15 01:23:36;;;;;;;46.17;19.50;;;4.50;99.90;;;;;;5036538;28;20029;-62
2022/01/15 01:26:24;;;;;;;43.97;19.58;;;4.40;99.90;;;;;;5033764;28;20022;-62
2022/01/15 01:31:58;;;;;;;52.90;23.75;;;4.50;99.90;;;;;;5031079;28;20032;-63
2022/01/15 01:34:27;;;;;;;49.90;22.90;;;4.40;99.90;;;;;;5034108;28;20056;-63
2022/01/15 01:39:45;;;;;;;50.00;22.27;;;4.20;99.90;;;;;;5028199;28;20453;-62
2022/01/15 01:44:42;;;;;;;49.17;22.20;;;4.10;99.90;;;;;;5032355;28;20048;-62
2022/01/15 01:47:24;;;;;;;53.25;24.20;;;4.10;99.90;;;;;;5037715;28;20029;-62
2022/01/15 01:49:49;;;;;;;49.83;22.17;;;4.10;99.90;;;;;;5037735;28;20104;-62
2022/01/15 01:52:15;;;;;;;44.67;19.70;;;4.10;99.90;;;;;;5037239;28;20065;-62
2022/01/15 01:54:41;;;;;;;35.75;15.32;;;4.10;99.90;;;;;;5036919;28;20033;-62
2022/01/15 01:57:07;;;;;;;35.70;16.17;;;4.10;99.90;;;;;;5031589;28;20026;-62
2022/01/15 01:59:32;;;;;;;33.22;13.85;;;4.20;99.90;;;;;;5042796;28;20526;-62
2022/01/15 02:01:58;;;;;;;28.30;12.68;;;4.20;99.90;;;;;;5034246;28;20079;-62
2022/01/15 02:04:24;;;;;;;38.42;14.57;;;4.30;99.90;;;;;;5033968;28;20045;-62
2022/01/15 02:06:49;;;;;;;39.17;16.75;;;4.30;99.90;;;;;;5034221;28;20033;-62
2022/01/15 02:09:16;;;;;;;43.58;19.00;;;4.30;99.90;;;;;;5033954;28;20099;-63
2022/01/15 02:11:43;;;;;;;45.85;19.30;;;4.20;99.90;;;;;;5033902;28;20028;-63
2022/01/15 02:14:08;;;;;;;36.20;16.10;;;4.10;99.90;;;;;;5033854;28;20018;-62
2022/01/15 02:16:34;;;;;;;33.85;13.88;;;4.20;99.90;;;;;;5038216;28;20041;-63
2022/01/15 02:19:18;;;;;;;42.97;17.95;;;4.20;99.90;;;;;;5033675;28;20021;-62
2022/01/15 02:24:15;;;;;;;41.22;16.42;;;4.20;99.90;;;;;;5040325;28;20381;-62
2022/01/15 02:26:40;;;;;;;35.22;14.32;;;4.20;99.90;;;;;;5037115;28;20020;-63
2022/01/15 02:29:08;;;;;;;41.85;16.80;;;4.20;99.90;;;;;;5039589;28;20013;-63
2022/01/15 02:31:35;;;;;;;36.40;15.65;;;4.20;99.90;;;;;;5036998;28;20583;-63
2022/01/15 02:34:02;;;;;;;33.75;14.93;;;4.30;99.90;;;;;;5036939;28;20024;-62
2022/01/15 02:36:33;;;;;;;39.95;14.82;;;4.30;99.90;;;;;;5032160;28;20489;-64
2022/01/15 02:39:00;;;;;;;37.63;15.07;;;4.30;99.90;;;;;;5036179;28;20465;-62
2022/01/15 02:41:28;;;;;;;42.50;17.23;;;4.30;99.90;;;;;;5033824;28;20025;-63
2022/01/15 02:43:55;;;;;;;45.17;18.35;;;4.30;99.90;;;;;;5041633;28;20025;-63
2022/01/15 02:48:54;;;;;;;52.92;20.13;;;4.30;99.90;;;;;;5033559;28;20018;-62
2022/01/15 02:51:23;;;;;;;66.93;25.17;;;4.30;99.90;;;;;;5036308;28;20028;-62
2022/01/15 02:53:55;;;;;;;67.78;25.23;;;4.20;99.90;;;;;;5031429;28;20018;-63
2022/01/15 02:56:37;;;;;;;69.18;25.88;;;4.10;99.90;;;;;;5033808;28;20104;-62
2022/01/15 02:59:04;;;;;;;58.65;24.40;;;4.00;99.90;;;;;;5046213;28;20394;-62
2022/01/15 03:01:31;;;;;;;61.25;24.70;;;3.80;99.90;;;;;;5032172;28;20079;-62
2022/01/15 03:03:56;;;;;;;59.13;22.88;;;3.70;99.90;;;;;;5032939;28;20029;-63
2022/01/15 03:06:23;;;;;;;58.63;24.42;;;3.70;99.90;;;;;;5035605;28;20033;-62
2022/01/15 03:08:50;;;;;;;54.20;21.30;;;3.60;99.90;;;;;;5035664;28;20452;-62
2022/01/15 03:11:16;;;;;;;66.63;24.15;;;3.70;99.90;;;;;;5034627;28;20034;-62
2022/01/15 03:13:43;;;;;;;59.75;23.23;;;3.70;99.90;;;;;;5039084;28;20074;-62
2022/01/15 03:16:11;;;;;;;52.95;22.15;;;3.70;99.90;;;;;;5033945;28;20478;-62
2022/01/15 03:18:36;;;;;;;51.83;20.70;;;3.70;99.90;;;;;;5032684;28;20037;-62
2022/01/15 03:21:02;;;;;;;45.00;20.90;;;3.70;99.90;;;;;;5035407;28;20045;-62
2022/01/15 03:23:27;;;;;;;46.25;20.77;;;3.60;99.90;;;;;;5032492;28;20037;-62
2022/01/15 03:25:53;;;;;;;39.80;17.52;;;3.60;99.90;;;;;;5029719;28;20033;-62
2022/01/15 03:28:19;;;;;;;42.03;18.67;;;3.60;99.90;;;;;;5037978;28;20037;-62
2022/01/15 03:30:44;;;;;;;49.63;20.58;;;3.60;99.90;;;;;;5035054;28;20060;-63
2022/01/15 03:33:10;;;;;;;50.95;20.40;;;3.60;99.90;;;;;;5029296;28;20120;-62
2022/01/15 03:35:36;;;;;;;41.78;18.80;;;3.60;99.90;;;;;;5045848;28;20389;-62
2022/01/15 03:38:03;;;;;;;41.22;18.67;;;3.50;99.90;;;;;;5041345;28;20017;-62
2022/01/15 03:40:29;;;;;;;38.85;19.08;;;3.50;99.90;;;;;;5054668;28;20026;-62
2022/01/15 03:42:55;;;;;;;35.92;17.35;;;3.60;99.90;;;;;;5038898;28;20024;-62
2022/01/15 03:45:20;;;;;;;34.53;16.42;;;3.60;99.90;;;;;;5033314;28;20128;-63
2022/01/15 03:47:46;;;;;;;33.95;16.75;;;3.60;99.90;;;;;;5038162;28;20060;-62
2022/01/15 03:50:13;;;;;;;47.67;22.77;;;3.70;99.90;;;;;;5033506;28;20393;-63
2022/01/15 03:52:39;;;;;;;51.67;22.02;;;3.70;99.90;;;;;;5045281;28;20021;-62
2022/01/15 03:55:06;;;;;;;45.40;20.50;;;3.70;99.90;;;;;;5039650;28;20031;-62
2022/01/15 03:57:32;;;;;;;45.15;20.13;;;3.70;99.90;;;;;;5034128;28;20100;-62
2022/01/15 03:59:59;;;;;;;45.83;19.90;;;3.70;99.90;;;;;;5030689;28;20036;-62
2022/01/15 04:02:24;;;;;;;44.50;18.77;;;3.70;99.90;;;;;;5036008;28;20029;-62
2022/01/15 04:05:00;;;;;;;41.05;18.10;;;3.70;99.90;;;;;;5034499;28;20037;-63
2022/01/15 04:07:25;;;;;;;56.50;23.45;;;3.80;99.90;;;;;;5029454;28;20108;-63
2022/01/15 04:09:50;;;;;;;42.22;17.70;;;3.80;99.90;;;;;;5032525;28;20533;-62
2022/01/15 04:12:16;;;;;;;55.80;24.33;;;3.80;99.90;;;;;;5033741;28;20037;-62
2022/01/15 04:14:42;;;;;;;53.05;23.10;;;3.70;99.90;;;;;;5039901;28;20029;-62
2022/01/15 04:17:07;;;;;;;53.97;24.30;;;3.60;99.90;;;;;;5031809;28;20044;-62
2022/01/15 04:19:34;;;;;;;52.75;23.83;;;3.60;99.90;;;;;;5029242;28;20093;-62
2022/01/15 04:21:59;;;;;;;53.50;22.83;;;3.50;99.90;;;;;;5034132;28;20275;-62
2022/01/15 04:24:25;;;;;;;51.80;22.17;;;3.40;99.90;;;;;;5037140;28;20151;-62
2022/01/15 04:26:50;;;;;;;56.22;24.25;;;3.40;99.90;;;;;;5029115;28;20215;-62
2022/01/15 04:29:16;;;;;;;58.03;22.95;;;3.40;99.90;;;;;;5036811;28;20064;-62
2022/01/15 04:31:48;;;;;;;50.63;21.05;;;3.40;99.90;;;;;;5034406;28;20465;-63
2022/01/15 04:34:26;;;;;;;47.72;20.55;;;3.50;99.90;;;;;;5031477;28;20025;-62
2022/01/15 04:36:53;;;;;;;49.05;20.83;;;3.50;99.90;;;;;;5032733;28;20018;-62
2022/01/15 04:39:19;;;;;;;49.72;20.20;;;3.50;99.90;;;;;;5035378;28;20449;-63
2022/01/15 04:41:45;;;;;;;49.33;20.08;;;3.60;99.90;;;;;;5036797;28;20538;-63
2022/01/15 04:44:11;;;;;;;46.75;20.23;;;3.60;99.90;;;;;;5031208;28;20075;-62
2022/01/15 04:46:38;;;;;;;44.55;20.73;;;3.60;99.90;;;;;;5034188;28;20096;-62
2022/01/15 04:49:05;;;;;;;48.20;19.13;;;3.60;99.90;;;;;;5033926;28;20021;-62
2022/01/15 04:51:30;;;;;;;53.55;20.95;;;3.70;99.90;;;;;;5036859;28;20055;-62
2022/01/15 04:53:56;;;;;;;42.25;18.92;;;3.60;99.90;;;;;;5031333;28;20030;-62
2022/01/15 04:56:21;;;;;;;53.10;21.23;;;3.60;99.90;;;;;;5030062;28;20048;-63
2022/01/15 04:58:48;;;;;;;55.17;22.83;;;3.60;99.90;;;;;;5037222;28;20032;-62
2022/01/15 05:01:14;;;;;;;51.90;21.20;;;3.60;99.90;;;;;;5040209;28;20840;-63
2022/01/15 05:03:39;;;;;;;46.50;19.75;;;3.60;99.90;;;;;;5035421;28;20527;-62
2022/01/15 05:06:05;;;;;;;53.80;21.27;;;3.60;99.90;;;;;;5033733;28;20537;-62
2022/01/15 05:08:32;;;;;;;59.22;24.30;;;3.60;99.90;;;;;;5028573;28;20022;-62
2022/01/15 05:10:59;;;;;;;59.83;24.30;;;3.60;99.90;;;;;;5033952;28;20033;-62
2022/01/15 05:13:29;;;;;;;59.42;22.60;;;3.60;99.90;;;;;;5028322;28;20026;-62
2022/01/15 05:15:55;;;;;;;66.22;23.15;;;3.70;99.90;;;;;;5035299;28;20447;-62
2022/01/15 05:18:21;;;;;;;65.93;25.08;;;3.70;99.90;;;;;;5034928;28;20096;-62
2022/01/15 05:20:46;;;;;;;64.78;26.58;;;3.70;99.90;;;;;;5037091;28;20109;-62
2022/01/15 05:23:12;;;;;;;61.47;24.13;;;3.60;99.90;;;;;;5040939;28;20033;-62
2022/01/15 05:25:39;;;;;;;60.40;23.30;;;3.60;99.90;;;;;;5039191;28;20052;-62
2022/01/15 05:28:05;;;;;;;72.75;26.70;;;3.60;99.90;;;;;;5037811;28;20174;-62
2022/01/15 05:30:32;;;;;;;68.90;25.80;;;3.60;99.90;;;;;;5037360;28;20044;-62
2022/01/15 05:32:58;;;;;;;62.30;22.83;;;3.60;99.90;;;;;;5035076;28;20108;-62
2022/01/15 05:35:26;;;;;;;50.08;19.77;;;3.60;99.90;;;;;;5043129;28;20032;-62
2022/01/15 05:37:56;;;;;;;44.28;16.88;;;3.70;99.90;;;;;;5037627;28;20021;-62
2022/01/15 05:40:22;;;;;;;66.57;25.92;;;3.70;99.90;;;;;;5050006;28;20025;-63
2022/01/15 05:42:47;;;;;;;68.50;26.23;;;3.70;99.90;;;;;;5037624;28;20034;-63
2022/01/15 05:45:14;;;;;;;60.75;22.77;;;3.70;99.90;;;;;;5037286;28;20404;-63
2022/01/15 05:47:40;;;;;;;62.90;23.83;;;3.70;99.90;;;;;;5039735;28;20048;-62
2022/01/15 05:50:06;;;;;;;65.82;22.50;;;3.70;99.90;;;;;;5033651;28;20025;-62
2022/01/15 05:52:31;;;;;;;75.80;24.85;;;3.70;99.90;;;;;;5040144;28;20040;-62
2022/01/15 05:54:57;;;;;;;55.92;21.20;;;3.70;99.90;;;;;;5034566;28;20087;-63
2022/01/15 05:57:22;;;;;;;61.45;21.65;;;3.80;99.90;;;;;;5042710;28;20036;-62
2022/01/15 05:59:51;;;;;;;61.60;23.38;;;3.80;99.90;;;;;;5051981;28;20043;-62
2022/01/15 06:02:21;;;;;;;62.53;23.75;;;3.80;99.90;;;;;;5036204;28;20460;-62
2022/01/15 06:04:46;;;;;;;62.60;24.73;;;3.80;99.90;;;;;;5036713;28;20103;-62
2022/01/15 06:07:12;;;;;;;59.50;22.58;;;3.80;99.90;;;;;;5039641;28;20496;-62
2022/01/15 06:09:37;;;;;;;62.17;22.42;;;3.90;99.90;;;;;;5035466;28;20542;-62
2022/01/15 06:12:03;;;;;;;49.60;19.02;;;3.90;99.90;;;;;;5036678;28;20036;-62
2022/01/15 06:14:30;;;;;;;69.45;25.45;;;3.90;99.90;;;;;;5036879;28;20024;-62
2022/01/15 06:17:11;;;;;;;64.93;24.42;;;3.90;99.90;;;;;;5043504;28;20029;-63
2022/01/15 06:19:38;;;;;;;55.63;21.90;;;3.90;99.90;;;;;;5032738;28;20021;-63
2022/01/15 06:22:04;;;;;;;50.45;19.08;;;3.90;99.90;;;;;;5033711;28;20381;-62
2022/01/15 06:24:30;;;;;;;60.53;22.05;;;3.90;99.90;;;;;;5031207;28;20053;-62
2022/01/15 06:27:21;;;;;;;;;;;;;;;;;;;;;
2022/01/15 06:29:47;;;;;;;36.90;16.40;;;4.00;99.90;;;;;;5038846;28;20017;-62
2022/01/15 06:32:13;;;;;;;43.10;17.27;;;4.00;99.90;;;;;;5033422;28;20030;-63
2022/01/15 06:34:40;;;;;;;45.00;19.00;;;4.10;99.90;;;;;;5033030;28;20367;-63
2022/01/15 06:37:05;;;;;;;43.67;18.13;;;4.10;99.90;;;;;;5032885;28;20041;-62
2022/01/15 06:39:33;;;;;;;54.25;19.45;;;4.10;99.90;;;;;;5034325;28;20026;-63
2022/01/15 06:41:58;;;;;;;50.00;20.65;;;4.10;99.90;;;;;;5049636;28;20025;-62
2022/01/15 06:44:24;;;;;;;49.92;17.88;;;4.10;99.90;;;;;;5053766;28;20025;-62
2022/01/15 06:46:49;;;;;;;60.50;21.33;;;4.10;99.90;;;;;;5054203;28;20112;-62
2022/01/15 06:49:15;;;;;;;56.97;21.92;;;4.10;99.90;;;;;;5053843;28;20017;-63
2022/01/15 06:51:41;;;;;;;51.58;19.42;;;4.10;99.90;;;;;;5054331;28;20037;-62
2022/01/15 06:54:06;;;;;;;60.95;22.35;;;4.10;99.90;;;;;;5053419;28;20037;-63
2022/01/15 06:56:32;;;;;;;50.15;19.30;;;4.10;99.90;;;;;;5049656;28;20017;-63
2022/01/15 06:58:58;;;;;;;74.70;26.55;;;4.20;99.90;;;;;;5048434;28;20043;-63
2022/01/15 07:01:24;;;;;;;67.18;25.65;;;4.10;99.90;;;;;;5050217;28;20033;-63
2022/01/15 07:03:49;;;;;;;74.85;26.40;;;4.10;99.90;;;;;;5044159;28;20029;-63
2022/01/15 07:06:15;;;;;;;56.60;21.45;;;4.10;99.90;;;;;;5051658;28;20033;-63
2022/01/15 07:08:40;;;;;;;61.22;20.00;;;4.10;99.90;;;;;;5053105;28;20025;-63
2022/01/15 07:11:06;;;;;;;64.65;24.55;;;4.10;99.90;;;;;;5054099;28;20564;-63
2022/01/15 07:13:33;;;;;;;76.72;27.65;;;4.10;99.90;;;;;;5053976;28;20029;-62
2022/01/15 07:15:58;;;;;;;70.97;26.13;;;4.10;99.90;;;;;;5053965;28;20064;-63
2022/01/15 07:18:24;;;;;;;55.55;21.33;;;4.00;99.90;;;;;;5053958;28;20065;-63
2022/01/15 07:20:51;;;;;;;72.93;25.50;;;4.10;99.90;;;;;;5053708;28;20060;-63
2022/01/15 07:23:17;;;;;;;68.97;24.58;;;4.10;99.90;;;;;;5052592;28;20380;-63
2022/01/15 07:25:42;;;;;;;58.92;19.65;;;4.00;99.90;;;;;;5052619;28;20032;-63
2022/01/15 07:28:08;;;;;;;58.45;19.60;;;4.00;99.90;;;;;;5052379;28;20682;-65
2022/01/15 07:30:35;;;;;;;57.45;22.17;;;4.10;99.90;;;;;;5053772;28;20036;-65
2022/01/15 07:33:00;;;;;;;58.53;23.02;;;4.10;99.90;;;;;;5053462;28;20480;-65
2022/01/15 07:35:26;;;;;;;63.15;22.25;;;4.10;99.90;;;;;;5053679;28;20124;-65
2022/01/15 07:37:51;;;;;;;64.20;21.80;;;4.10;99.90;;;;;;5052011;28;20104;-65
2022/01/15 07:40:17;;;;;;;62.85;24.58;;;4.00;99.90;;;;;;5052858;28;20033;-65
2022/01/15 07:42:43;;;;;;;64.05;24.60;;;3.90;99.90;;;;;;5052874;28;20051;-65
2022/01/15 07:45:12;;;;;;;64.80;23.10;;;3.90;99.90;;;;;;5047660;28;20025;-65
2022/01/15 07:47:38;;;;;;;55.15;21.77;;;3.90;99.90;;;;;;5032886;28;20061;-64
2022/01/15 07:50:06;;;;;;;64.63;22.75;;;3.90;99.90;;;;;;5033523;28;20025;-65
2022/01/15 07:52:32;;;;;;;69.20;23.52;;;3.90;99.90;;;;;;5033115;28;20547;-64
2022/01/15 07:55:14;;;;;;;69.22;22.65;;;3.90;99.90;;;;;;5031744;28;20026;-65
2022/01/15 07:57:43;;;;;;;61.50;20.67;;;3.90;99.90;;;;;;5033282;28;20028;-65
2022/01/15 08:03:27;;;;;;;72.43;25.35;;;3.90;99.90;;;;;;5024383;28;20528;-65
2022/01/15 08:05:53;;;;;;;82.07;27.83;;;3.80;99.90;;;;;;5033199;28;20038;-65
2022/01/15 08:08:18;;;;;;;80.15;27.98;;;3.80;99.90;;;;;;5039976;28;20049;-64
2022/01/15 08:10:44;;;;;;;75.28;27.98;;;3.70;99.90;;;;;;5032914;28;20025;-65
2022/01/15 08:13:10;;;;;;;81.43;28.65;;;3.70;99.90;;;;;;5037585;28;20037;-64
2022/01/15 08:16:06;;;;;;;80.47;28.88;;;3.70;99.90;;;;;;5048465;28;20047;-64
2022/01/15 08:22:46;;;;;;;78.35;28.48;;;3.80;99.90;;;;;;4988545;28;20044;-64
2022/01/15 08:25:18;;;;;;;77.25;26.23;;;3.80;99.90;;;;;;4977619;28;20045;-65
2022/01/15 08:34:47;;;;;;;81.85;31.42;;;3.90;99.90;;;;;;4854621;28;20032;-64
2022/01/15 08:37:12;;;;;;;70.57;27.98;;;3.90;99.90;;;;;;5040831;28;20029;-65
2022/01/15 08:39:38;;;;;;;81.28;30.48;;;3.90;99.90;;;;;;5047747;28;20028;-65
2022/01/15 08:42:06;;;;;;;79.25;31.88;;;3.90;99.90;;;;;;5047433;28;20056;-64
2022/01/15 08:44:32;;;;;;;80.05;32.80;;;3.90;99.90;;;;;;5050132;28;20485;-64
2022/01/15 08:47:01;;;;;;;80.53;31.85;;;3.90;99.90;;;;;;5049153;28;20064;-64
2022/01/15 08:49:27;;;;;;;77.95;29.80;;;3.90;99.90;;;;;;5048427;28;20024;-64
2022/01/15 08:51:52;;;;;;;77.43;29.42;;;3.80;99.90;;;;;;5048716;28;20025;-64
2022/01/15 08:54:18;;;;;;;73.10;29.92;;;3.80;99.90;;;;;;5052310;28;20021;-64
2022/01/15 08:56:53;;;;;;;81.45;31.77;;;3.80;99.90;;;;;;5052488;28;20034;-65
2022/01/15 08:59:33;;;;;;;;;;;;;;;;;;;;;
2022/01/15 09:02:34;;;;;;;;;;;3.80;99.90;;;;;;5055673;28;20020;-64
2022/01/15 09:05:00;;;;;;;78.40;31.13;;;3.70;99.90;;;;;;5053785;28;19909;-64
2022/01/15 09:07:25;;;;;;;78.68;31.33;;;3.70;99.90;;;;;;5052070;28;20030;-64
2022/01/15 09:09:51;;;;;;;87.65;34.00;;;3.70;99.90;;;;;;5049992;28;20048;-64
2022/01/15 09:12:17;;;;;;;83.03;32.80;;;3.70;99.90;;;;;;5053047;28;20060;-64
2022/01/15 09:14:43;;;;;;;86.88;33.33;;;3.70;99.90;;;;;;5052977;28;20048;-64
2022/01/15 09:17:09;;;;;;;87.05;33.08;;;3.70;99.90;;;;;;5054150;28;20017;-65
2022/01/15 09:19:35;;;;;;;86.15;33.75;;;3.70;99.90;;;;;;5055914;28;20025;-64
2022/01/15 09:22:00;;;;;;;77.85;30.75;;;3.70;99.90;;;;;;5049321;28;20497;-64
2022/01/15 09:24:33;;;;;;;84.53;31.80;;;3.60;99.90;;;;;;5046571;28;20027;-65
2022/01/15 09:32:08;;;;;;;77.50;29.77;;;3.50;99.90;;;;;;5054309;28;20396;-64
2022/01/15 09:34:35;;;;;;;80.18;30.65;;;3.50;99.90;;;;;;5055904;28;20029;-64
2022/01/15 09:37:18;;;;;;;;;;;;;;;;;;;;;
2022/01/15 09:39:59;;;;;;;81.22;31.65;;;3.40;99.90;;;;;;5035803;28;20020;-65
2022/01/15 09:42:25;;;;;;;80.57;30.83;;;3.50;99.90;;;;;;5038606;28;20021;-64
2022/01/15 09:44:53;;;;;;;84.45;33.35;;;3.40;99.90;;;;;;5055585;28;20029;-64
2022/01/15 09:47:22;;;;;;;82.20;31.05;;;3.50;99.90;;;;;;5055709;28;20029;-64
2022/01/15 09:49:50;;;;;;;78.30;31.95;;;3.50;99.90;;;;;;5054793;28;20036;-64
2022/01/15 09:52:16;;;;;;;82.13;33.63;;;3.40;99.90;;;;;;5050911;28;20025;-64
2022/01/15 09:54:42;;;;;;;82.85;30.85;;;3.30;99.90;;;;;;5054212;28;20036;-64
2022/01/15 09:57:08;;;;;;;79.18;32.38;;;3.30;99.90;;;;;;5051942;28;20116;-64
2022/01/15 09:59:36;;;;;;;74.45;30.60;;;3.30;99.90;;;;;;5070729;28;20028;-64
2022/01/15 10:02:04;;;;;;;83.63;32.03;;;3.20;99.90;;;;;;5061033;28;20138;-64
2022/01/15 10:04:32;;;;;;;79.30;29.75;;;3.30;99.90;;;;;;5061947;28;20032;-65
2022/01/15 10:07:33;;;;;;;80.20;32.05;;;3.40;99.90;;;;;;5049594;28;20055;-64
2022/01/15 10:13:44;;;;;;;70.28;28.63;;;3.40;99.90;;;;;;4975906;28;20086;-64
2022/01/15 10:16:12;;;;;;;65.03;29.75;;;3.30;99.90;;;;;;5018306;28;20029;-64
2022/01/15 10:18:44;;;;;;;68.55;27.58;;;3.30;99.90;;;;;;5041395;28;20110;-65
2022/01/15 10:21:13;;;;;;;67.65;29.45;;;3.20;99.90;;;;;;5042405;28;20366;-64
2022/01/15 10:24:08;;;;;;;68.65;28.60;;;3.20;99.90;;;;;;5045878;28;20044;-65
2022/01/15 10:26:36;;;;;;;65.38;26.65;;;3.20;99.90;;;;;;5052128;28;20086;-64
2022/01/15 10:29:37;;;;;;;67.20;29.13;;;3.10;99.90;;;;;;5049666;28;20373;-64
2022/01/15 10:32:12;;;;;;;64.13;29.65;;;3.20;99.90;;;;;;5051120;28;20471;-64
2022/01/15 10:34:38;;;;;;;69.13;29.80;;;3.20;99.90;;;;;;5052143;28;20021;-64
2022/01/15 10:37:15;;;;;;;67.35;29.67;;;3.10;99.90;;;;;;5050707;28;20033;-63
2022/01/15 10:39:54;;;;;;;66.90;29.17;;;3.00;99.90;;;;;;5048583;28;20043;-63
2022/01/15 10:42:23;;;;;;;75.03;32.67;;;3.00;99.90;;;;;;5052424;28;20108;-64
2022/01/15 10:44:59;;;;;;;77.85;31.83;;;2.90;99.90;;;;;;5049875;28;20050;-63
2022/01/15 10:47:28;;;;;;;76.93;32.08;;;2.90;99.90;;;;;;5055679;28;20030;-64
2022/01/15 10:50:17;;;;;;;70.93;31.07;;;2.90;99.90;;;;;;5052434;28;20112;-64
2022/01/15 10:52:43;;;;;;;69.03;29.48;;;2.80;99.90;;;;;;5050296;28;20029;-64
2022/01/15 10:55:15;;;;;;;64.88;26.88;;;2.80;99.90;;;;;;5050456;28;20078;-63
2022/01/15 10:58:18;;;;;;;69.80;28.08;;;2.90;99.90;;;;;;5050960;28;20385;-64
2022/01/15 11:00:49;;;;;;;80.28;31.70;;;3.10;99.90;;;;;;5041833;28;20033;-64
2022/01/15 11:03:35;;;;;;;76.53;33.80;;;3.10;99.90;;;;;;5052025;28;20039;-63
2022/01/15 11:06:00;;;;;;;69.50;31.80;;;3.10;99.90;;;;;;5052427;28;20045;-63
2022/01/15 11:08:56;;;;;;;67.63;32.38;;;2.90;99.90;;;;;;5047275;28;20497;-64
2022/01/15 11:11:23;;;;;;;62.25;30.88;;;2.70;99.90;;;;;;5042943;28;20026;-63
2022/01/15 11:13:49;;;;;;;62.58;30.35;;;2.60;99.90;;;;;;5051819;28;20028;-63
2022/01/15 11:16:18;;;;;;;63.13;29.27;;;2.50;99.90;;;;;;5055921;28;20396;-63
2022/01/15 11:18:46;;;;;;;60.70;30.85;;;2.50;99.90;;;;;;5055458;28;20033;-63
2022/01/15 11:21:16;;;;;;;59.45;29.65;;;2.40;99.90;;;;;;5053089;28;20029;-64
2022/01/15 11:23:43;;;;;;;64.18;29.65;;;2.30;99.90;;;;;;5052368;28;20120;-63
2022/01/15 11:27:05;;;;;;;;;;;;;;;;;;;;;
2022/01/15 11:29:42;;;;;;;;;;;;;;;;;;;;;
2022/01/15 11:32:12;;;;;;;62.33;30.05;;;2.10;99.90;;;;;;5052435;28;20031;-63
2022/01/15 11:34:39;;;;;;;;;;;2.10;99.90;;;;;;5051009;28;20031;-63
2022/01/15 11:37:16;;;;;;;61.08;29.50;;;2.20;99.90;;;;;;5053370;28;20327;-63
2022/01/15 11:39:58;;;;;;;56.72;29.13;;;2.20;99.90;;;;;;5053380;28;20017;-63
2022/01/15 11:42:35;;;;;;;57.72;29.63;;;2.20;99.90;;;;;;5059805;28;20515;-64
2022/01/15 11:45:25;;;;;;;55.80;28.30;;;2.20;99.90;;;;;;5068648;28;20111;-64
2022/01/15 11:48:20;;;;;;;51.28;26.35;;;2.20;99.90;;;;;;5038899;28;20178;-62
2022/01/15 11:51:21;;;;;;;54.83;27.95;;;2.20;99.90;;;;;;5019172;28;20033;-63
2022/01/15 11:54:00;;;;;;;55.53;28.13;;;2.10;99.90;;;;;;5026711;28;20024;-63
2022/01/15 11:56:37;;;;;;;56.95;27.73;;;2.00;99.90;;;;;;5063559;28;20020;-63
2022/01/15 11:59:37;;;;;;;53.33;28.30;;;2.00;99.90;;;;;;5052812;28;20033;-64
2022/01/15 12:03:00;;;;;;;;;;;;;;;;;;;;;
2022/01/15 12:05:29;;;;;;;62.78;29.52;;;2.10;99.90;;;;;;5051186;28;20031;-63
2022/01/15 12:08:30;;;;;;;61.97;30.02;;;2.10;99.90;;;;;;5051062;28;20052;-63
2022/01/15 12:10:57;;;;;;;63.22;30.60;;;2.20;99.90;;;;;;5048450;28;20380;-63
2022/01/15 12:13:26;;;;;;;66.45;31.42;;;2.20;99.90;;;;;;5047776;28;20116;-63
2022/01/15 12:16:24;;;;;;;63.83;31.13;;;2.10;99.90;;;;;;5046650;28;20078;-63
2022/01/15 12:18:51;;;;;;;65.47;31.88;;;2.20;99.90;;;;;;5050133;28;20047;-63
2022/01/15 12:21:42;;;;;;;70.70;31.67;;;2.20;99.90;;;;;;5046185;28;20032;-63
2022/01/15 12:24:46;;;;;;;75.15;36.42;;;2.30;99.90;;;;;;5048340;28;20037;-64
2022/01/15 12:27:27;;;;;;;66.65;32.55;;;2.30;99.90;;;;;;5050085;28;20064;-64
2022/01/15 12:30:36;;;;;;;69.97;30.85;;;2.30;99.90;;;;;;5046518;28;20032;-64
2022/01/15 12:33:35;;;;;;;73.13;34.15;;;2.30;99.90;;;;;;5037244;28;20033;-64
2022/01/15 12:36:01;;;;;;;72.20;34.55;;;2.40;99.90;;;;;;5035144;28;20022;-64
2022/01/15 12:38:53;;;;;;;65.90;30.05;;;2.30;99.90;;;;;;5048220;28;20473;-63
2022/01/15 12:44:46;;;;;;;72.60;32.97;;;2.40;99.90;;;;;;4997040;28;20462;-63
2022/01/15 12:47:13;;;;;;;68.60;32.63;;;2.40;99.90;;;;;;5046336;28;20166;-63
2022/01/15 12:49:41;;;;;;;69.82;32.83;;;2.40;99.90;;;;;;5046619;28;20026;-63
2022/01/15 12:52:13;;;;;;;72.05;32.60;;;2.30;99.90;;;;;;5049760;28;20021;-64
2022/01/15 12:54:51;;;;;;;69.90;31.85;;;2.30;99.90;;;;;;5043935;28;20100;-63
2022/01/15 12:58:04;;;;;;;73.10;34.40;;;2.30;99.90;;;;;;5052645;28;20107;-63
2022/01/15 13:00:32;;;;;;;74.00;34.78;;;2.30;99.90;;;;;;5048546;28;20021;-63
2022/01/15 13:03:00;;;;;;;71.28;33.67;;;2.40;99.90;;;;;;5046566;28;20013;-64
2022/01/15 13:05:31;;;;;;;78.28;35.80;;;2.40;99.90;;;;;;5049165;28;20017;-63
2022/01/15 13:08:10;;;;;;;76.85;32.80;;;2.40;99.90;;;;;;5047341;28;20079;-64
2022/01/15 13:14:05;;;;;;;80.47;36.40;;;2.50;99.90;;;;;;5046625;28;20551;-63
2022/01/15 13:16:32;;;;;;;79.18;37.65;;;2.40;99.90;;;;;;5044559;28;20115;-63
2022/01/15 13:19:02;;;;;;;88.18;36.85;;;2.40;99.90;;;;;;5037464;28;20032;-63
2022/01/15 13:21:33;;;;;;;85.13;38.72;;;2.40;99.90;;;;;;5041438;28;20009;-63
2022/01/15 13:24:29;;;;;;;76.82;35.60;;;2.40;99.90;;;;;;5030052;28;20042;-64
2022/01/15 13:27:20;;;;;;;86.32;37.40;;;2.30;99.90;;;;;;5035242;28;20045;-63
2022/01/15 13:29:46;;;;;;;81.70;37.25;;;2.30;99.90;;;;;;5037648;28;20021;-63
2022/01/15 13:32:11;;;;;;;84.00;39.97;;;2.30;99.90;;;;;;5046159;28;20773;-63
2022/01/15 13:34:37;;;;;;;88.32;37.67;;;2.30;99.90;;;;;;5045886;28;20396;-63
2022/01/15 13:37:24;;;;;;;89.43;39.75;;;2.30;99.90;;;;;;5063532;28;20024;-63
2022/01/15 13:39:50;;;;;;;85.28;38.47;;;2.30;99.90;;;;;;5063556;28;20123;-63
2022/01/15 13:42:19;;;;;;;90.57;38.22;;;2.40;99.90;;;;;;5060689;28;20074;-63
2022/01/15 13:44:44;;;;;;;88.78;39.20;;;2.30;99.90;;;;;;5052940;28;20017;-63
2022/01/15 13:47:17;;;;;;;92.70;38.83;;;2.30;99.90;;;;;;5070226;28;20081;-64
2022/01/15 13:55:27;;;;;;;92.80;40.08;;;2.40;99.90;;;;;;5054576;28;20032;-63
2022/01/15 13:58:14;;;;;;;97.95;41.03;;;2.30;99.90;;;;;;5056460;28;20009;-63
2022/01/15 14:00:40;;;;;;;100.85;41.33;;;2.30;99.90;;;;;;5053211;28;20469;-63
2022/01/15 14:03:07;;;;;;;99.00;43.65;;;2.30;99.90;;;;;;5055607;28;20086;-63
2022/01/15 14:05:34;;;;;;;97.78;40.90;;;2.30;99.90;;;;;;5056191;28;20066;-63